Terminal Aerodrome Forecast
Issued by NWS Shreveport, LA

Home | Current Version | Previous Version | Text Only | Print | Product List | Glossary On
Versions: 1 2 3 4 5 6 7 8 9 10 11 12 13 14 15 16 17 18 19
000
FTUS44 KSHV 011618 AAB
TAFSHV
TAF AMD
KSHV 011618Z 0116/0212 24011KT P6SM FEW015 SCT280
     FM011800 24012G19KT P6SM SCT035 SCT130
     FM012100 22015G21KT P6SM BKN040 BKN130
     FM020000 21008KT P6SM SCT250
     FM021100 21008KT P6SM SCT015 BKN150=

USA.gov is the U.S. government's official web portal to all federal, state and local government web resources and services.